Time;durP1;ratioP1;P1;durP2;ratioP2;P2;SDS_P1;SDS_P2;PMS_P1;PMS_P2;Temp;Humidity;BMP_temperature;BMP_pressure;BME280_temperature;BME280_humidity;BME280_pressure;Samples;Min_cycle;Max_cycle;Signal;HPM_P1;HPM_P2
2021/12/24 00:02:07;;;;;;;0.77;0.60;;;;;;;18.15;50.77;96221.41;10409358;28;20396;-21
2021/12/24 00:07:07;;;;;;;0.60;0.50;;;;;;;18.11;50.83;96207.06;10410801;28;20033;-21
2021/12/24 00:12:14;;;;;;;0.90;0.43;;;;;;;18.12;50.76;96203.69;10408755;28;20296;-22
2021/12/24 00:17:19;;;;;;;1.45;0.75;;;;;;;18.01;50.76;96190.25;10408284;28;20037;-21
2021/12/24 00:38:08;;;;;;;1.38;0.57;;;;;;;18.13;50.72;96200.28;10409881;28;20057;-21
2021/12/24 00:43:08;;;;;;;1.35;0.73;;;;;;;18.08;50.72;96181.78;10398634;28;20034;-21
2021/12/24 00:48:12;;;;;;;1.00;0.55;;;;;;;18.13;50.76;96183.41;10407478;28;20037;-21
2021/12/24 00:58:32;;;;;;;0.50;0.43;;;;;;;18.12;50.67;96145.41;10405790;28;20033;-21
2021/12/24 01:03:32;;;;;;;0.63;0.60;;;;;;;18.09;50.67;96137.84;10405582;28;20029;-21
2021/12/24 01:08:34;;;;;;;0.40;0.40;;;;;;;18.10;50.77;96149.66;10407646;28;20031;-21
2021/12/24 01:13:35;;;;;;;0.73;0.40;;;;;;;18.08;50.62;96156.44;10401037;28;20407;-21
2021/12/24 01:24:02;;;;;;;0.82;0.50;;;;;;;18.03;50.65;96158.16;10406753;28;20619;-21
2021/12/24 01:39:37;;;;;;;0.85;0.73;;;;;;;18.03;51.03;96153.09;10406071;28;20623;-22
2021/12/24 01:44:38;;;;;;;0.50;0.40;;;;;;;18.06;50.54;96151.38;10400460;28;20037;-21
2021/12/24 01:49:41;;;;;;;0.68;0.50;;;;;;;18.02;50.87;96131.16;10403207;28;20059;-22
2021/12/24 01:54:46;;;;;;;0.75;0.50;;;;;;;18.04;50.72;96125.22;10405855;28;20036;-21
2021/12/24 01:59:46;;;;;;;0.85;0.40;;;;;;;18.00;50.99;96127.78;10402479;28;20053;-21
2021/12/24 02:04:47;;;;;;;0.38;0.38;;;;;;;17.98;50.74;96111.78;10402940;28;20145;-21
2021/12/24 02:09:47;;;;;;;0.60;0.40;;;;;;;18.00;50.85;96107.53;10406449;28;20045;-21
2021/12/24 02:14:51;;;;;;;0.55;0.35;;;;;;;17.99;50.77;96110.91;10402515;28;20117;-20
2021/12/24 02:30:32;;;;;;;1.00;0.50;;;;;;;17.99;50.87;96078.00;10399233;28;20038;-21
2021/12/24 02:35:33;;;;;;;0.35;0.35;;;;;;;18.04;50.66;96078.78;10403918;28;20041;-21
2021/12/24 02:40:34;;;;;;;0.60;0.43;;;;;;;18.01;50.57;96078.81;10405644;28;20072;-21
2021/12/24 02:45:35;;;;;;;0.85;0.25;;;;;;;17.96;51.02;96070.41;10404051;28;20155;-21
2021/12/24 02:55:58;;;;;;;0.63;0.43;;;;;;;17.95;50.82;96051.00;10406006;28;20037;-21
2021/12/24 03:00:59;;;;;;;0.93;0.45;;;;;;;17.97;50.83;96046.75;10403543;28;20034;-21
2021/12/24 03:05:59;;;;;;;0.60;0.40;;;;;;;17.96;50.97;96045.06;10404123;28;20029;-24
2021/12/24 03:11:00;;;;;;;0.50;0.40;;;;;;;17.98;50.95;96043.41;10403905;28;20304;-21
2021/12/24 03:16:02;;;;;;;0.43;0.40;;;;;;;18.00;50.66;96036.63;10404494;28;20396;-21
2021/12/24 03:21:08;;;;;;;0.30;0.30;;;;;;;17.99;50.68;96035.75;10402738;28;20040;-21
2021/12/24 03:26:13;;;;;;;1.13;0.38;;;;;;;17.94;50.86;96012.19;10400981;28;20634;-21
2021/12/24 03:31:14;;;;;;;0.40;0.40;;;;;;;17.98;50.76;96023.13;10403208;28;20576;-21
2021/12/24 03:36:15;;;;;;;0.50;0.40;;;;;;;17.96;50.68;96015.53;10404101;28;20060;-21
2021/12/24 03:41:15;;;;;;;0.30;0.30;;;;;;;17.93;50.71;95999.53;10408780;28;20292;-21
2021/12/24 03:46:20;;;;;;;0.60;0.60;;;;;;;17.91;50.66;95986.88;10410715;28;20033;-22
2021/12/24 03:56:21;;;;;;;0.47;0.40;;;;;;;17.89;51.06;95983.53;10408894;28;20033;-21
2021/12/24 04:01:21;;;;;;;0.30;0.30;;;;;;;17.90;50.96;95994.50;10410203;28;20040;-21
2021/12/24 04:06:42;;;;;;;0.52;0.52;;;;;;;17.91;50.72;95986.06;10404997;28;20130;-21
2021/12/24 04:12:01;;;;;;;0.43;0.43;;;;;;;17.91;50.82;95991.94;10410475;28;20042;-21
2021/12/24 04:17:01;;;;;;;1.33;0.67;;;;;;;17.88;50.63;95975.94;10407859;28;20021;-21
2021/12/24 04:27:24;;;;;;;0.30;0.30;;;;;;;17.94;50.49;95996.16;10408662;28;20033;-21
2021/12/24 04:32:36;;;;;;;0.47;0.40;;;;;;;17.89;50.66;95993.66;10406622;28;20527;-21
2021/12/24 05:04:25;;;;;;;0.30;0.30;;;;;;;17.73;51.04;95976.09;10404616;28;20091;-21
2021/12/24 05:09:26;;;;;;;0.63;0.40;;;;;;;17.87;50.95;95969.19;10413646;28;20033;-21
2021/12/24 05:14:30;;;;;;;0.60;0.43;;;;;;;17.89;50.82;95967.47;10407285;28;20033;-21
2021/12/24 05:25:15;;;;;;;0.75;0.30;;;;;;;17.85;50.89;95960.78;10408661;28;20049;-21
2021/12/24 05:30:15;;;;;;;0.50;0.30;;;;;;;17.84;50.78;95974.31;10405779;28;20034;-21
2021/12/24 05:35:16;;;;;;;0.37;0.20;;;;;;;17.84;50.83;95971.78;10405220;28;20036;-22
2021/12/24 05:40:16;;;;;;;0.30;0.20;;;;;;;17.81;50.91;95966.72;10405565;28;20694;-21
2021/12/24 05:45:17;;;;;;;0.52;0.20;;;;;;;17.81;50.88;95967.56;10405719;28;20029;-21
2021/12/24 05:50:51;;;;;;;0.20;0.20;;;;;;;17.82;50.76;95978.53;10400599;28;20080;-21
2021/12/24 05:56:10;;;;;;;0.75;0.50;;;;;;;17.79;51.05;95976.03;10404542;28;20508;-22
2021/12/24 06:01:14;;;;;;;0.35;0.20;;;;;;;17.81;50.96;95964.19;10404621;28;20033;-22
2021/12/24 06:06:20;;;;;;;0.30;0.30;;;;;;;17.86;50.70;95977.66;10404825;28;20035;-22
2021/12/24 06:11:21;;;;;;;0.20;0.20;;;;;;;17.82;50.92;95968.41;10406143;28;20052;-21
2021/12/24 06:16:21;;;;;;;0.90;0.40;;;;;;;17.83;50.73;95973.44;10400030;28;20307;-21
2021/12/24 06:21:22;;;;;;;0.55;0.30;;;;;;;17.82;50.47;95986.97;10404140;28;20037;-21
2021/12/24 06:26:22;;;;;;;0.70;0.30;;;;;;;17.79;51.01;95965.91;10400072;28;20063;-21
2021/12/24 06:31:23;;;;;;;0.30;0.30;;;;;;;17.76;50.89;95986.19;10405936;28;20072;-21
2021/12/24 06:36:23;;;;;;;1.17;0.63;;;;;;;17.80;50.82;95990.34;10404253;28;20048;-21
2021/12/24 06:41:23;;;;;;;0.27;0.20;;;;;;;17.74;50.95;95982.84;10402598;28;20059;-21
2021/12/24 06:46:24;;;;;;;0.80;0.30;;;;;;;17.74;51.23;95982.84;10405708;28;20330;-21
2021/12/24 06:51:25;;;;;;;0.30;0.30;;;;;;;17.68;50.85;95972.75;10403022;28;20197;-21
2021/12/24 06:56:25;;;;;;;0.40;0.25;;;;;;;17.75;51.04;95972.69;10405847;28;20048;-22
2021/12/24 07:01:26;;;;;;;0.30;0.30;;;;;;;17.81;50.84;95974.31;10403039;28;20052;-21
2021/12/24 07:06:29;;;;;;;0.40;0.25;;;;;;;17.77;50.83;95965.94;10403291;28;20478;-21
2021/12/24 07:11:29;;;;;;;0.50;0.30;;;;;;;17.78;50.94;95964.22;10403739;28;20034;-21
2021/12/24 07:16:30;;;;;;;0.20;0.20;;;;;;;17.76;50.95;95965.94;10413888;28;20038;-21
2021/12/24 07:21:30;;;;;;;0.57;0.55;;;;;;;17.77;50.73;95965.06;10411719;28;20037;-22
2021/12/24 07:26:30;;;;;;;0.28;0.25;;;;;;;17.69;50.95;95977.81;10411956;28;20119;-20
2021/12/24 07:31:31;;;;;;;0.30;0.30;;;;;;;17.63;50.90;95977.00;10408932;28;20037;-21
2021/12/24 07:36:31;;;;;;;0.20;0.20;;;;;;;17.57;50.87;95995.63;10410289;28;20033;-21
2021/12/24 07:41:32;;;;;;;0.20;0.20;;;;;;;17.61;50.87;96004.03;10409253;28;20299;-21
2021/12/24 07:46:42;;;;;;;0.70;0.40;;;;;;;17.58;51.11;96007.41;10412361;28;20037;-21
2021/12/24 07:52:05;;;;;;;1.65;0.30;;;;;;;17.58;51.15;96001.53;10409484;28;20033;-21
2021/12/24 07:57:07;;;;;;;0.30;0.30;;;;;;;17.76;50.95;96006.44;10410783;28;20033;-21
2021/12/24 08:02:17;;;;;;;0.38;0.38;;;;;;;17.75;50.73;96004.75;10410790;28;20041;-21
2021/12/24 08:07:20;;;;;;;0.30;0.22;;;;;;;17.71;51.04;96008.16;10411835;28;20100;-21
2021/12/24 08:12:20;;;;;;;0.55;0.35;;;;;;;17.68;50.96;96009.00;10410005;28;20119;-21
2021/12/24 08:17:21;;;;;;;0.20;0.17;;;;;;;17.65;50.79;96008.22;10410468;28;20072;-21
2021/12/24 08:22:21;;;;;;;0.83;0.30;;;;;;;17.57;51.09;96000.69;10409452;28;20758;-21
2021/12/24 08:27:21;;;;;;;0.37;0.30;;;;;;;17.57;51.03;96009.97;10409250;28;20379;-21
2021/12/24 08:32:22;;;;;;;0.20;0.20;;;;;;;17.52;51.09;96012.56;10407757;28;20043;-21
2021/12/24 08:37:25;;;;;;;0.50;0.30;;;;;;;17.55;51.14;96014.19;10410295;28;20407;-21
2021/12/24 08:42:26;;;;;;;0.20;0.20;;;;;;;17.41;50.89;95998.28;10408855;28;20037;-21
2021/12/24 08:47:26;;;;;;;0.10;0.03;;;;;;;17.52;51.06;96011.69;10407732;28;20034;-21
2021/12/24 08:52:26;;;;;;;0.25;0.22;;;;;;;17.70;50.99;96009.00;10409381;28;20116;-21
2021/12/24 08:57:27;;;;;;;0.50;0.30;;;;;;;17.74;50.81;96013.22;10402024;28;20086;-21
2021/12/24 09:02:27;;;;;;;0.20;0.20;;;;;;;17.70;50.82;95996.34;10406537;28;20591;-21
2021/12/24 09:07:27;;;;;;;0.20;0.20;;;;;;;17.62;50.85;95995.56;10409132;28;20306;-21
2021/12/24 09:12:28;;;;;;;0.20;0.20;;;;;;;17.55;51.00;95988.88;10403004;28;20460;-21
2021/12/24 09:17:29;;;;;;;0.40;0.33;;;;;;;17.51;50.88;95994.84;10407383;28;20036;-21
2021/12/24 09:22:33;;;;;;;0.30;0.20;;;;;;;17.49;51.26;95997.38;10408069;28;20041;-21
2021/12/24 09:27:34;;;;;;;0.15;0.15;;;;;;;17.51;51.15;95979.66;10401958;28;20045;-21
2021/12/24 09:32:34;;;;;;;0.40;0.40;;;;;;;17.49;51.03;95977.13;10405499;28;20045;-22
2021/12/24 09:37:34;;;;;;;0.37;0.30;;;;;;;17.47;51.12;95967.84;10407104;28;20037;-21
2021/12/24 09:42:36;;;;;;;0.50;0.20;;;;;;;17.46;50.96;95966.19;10406310;28;20308;-21
2021/12/24 09:47:38;;;;;;;0.60;0.17;;;;;;;17.60;50.93;95961.84;10405419;28;20058;-21
2021/12/24 09:52:40;;;;;;;0.30;0.22;;;;;;;17.66;51.05;95959.28;10406921;28;20047;-21
2021/12/24 09:57:44;;;;;;;0.30;0.30;;;;;;;17.60;50.87;95949.19;10404709;28;20109;-21
2021/12/24 10:02:48;;;;;;;0.20;0.20;;;;;;;17.61;50.84;95949.19;10399834;28;20096;-21
2021/12/24 10:07:48;;;;;;;0.50;0.30;;;;;;;17.56;50.97;95942.50;10407608;28;20661;-21
2021/12/24 10:12:48;;;;;;;0.30;0.20;;;;;;;17.50;50.94;95945.09;10404829;28;20029;-21
2021/12/24 10:17:49;;;;;;;0.27;0.27;;;;;;;17.49;51.22;95940.88;10405937;28;20049;-21
2021/12/24 10:22:54;;;;;;;0.50;0.20;;;;;;;17.45;50.90;95929.09;10406474;28;20040;-21
2021/12/24 10:27:54;;;;;;;0.45;0.20;;;;;;;17.46;51.02;95941.72;10401032;28;20076;-21
2021/12/24 10:32:56;;;;;;;0.30;0.30;;;;;;;17.45;50.96;95934.16;10404044;28;20087;-21
2021/12/24 10:38:16;;;;;;;0.30;0.20;;;;;;;17.45;50.98;95918.97;10406064;28;20021;-21
2021/12/24 10:43:33;;;;;;;0.25;0.20;;;;;;;17.52;51.35;95910.47;10397815;28;20487;-21
2021/12/24 10:48:34;;;;;;;;;;;;;;;17.61;50.89;95895.19;10404902;28;20026;-21
2021/12/24 10:54:06;;;;;;;0.20;0.20;;;;;;;17.53;50.87;95894.44;10414166;28;19913;-21
2021/12/24 10:59:06;;;;;;;0.15;0.10;;;;;;;17.54;51.06;95883.44;10409919;28;20037;-22
2021/12/24 11:04:07;;;;;;;0.73;0.30;;;;;;;17.52;51.05;95901.19;10411502;28;20037;-21
2021/12/24 11:09:07;;;;;;;0.20;0.20;;;;;;;17.50;51.09;95892.75;10413375;28;20124;-21
2021/12/24 11:14:19;;;;;;;0.10;0.10;;;;;;;17.43;51.18;95886.09;10409370;28;20488;-21
2021/12/24 11:19:27;;;;;;;0.52;0.28;;;;;;;17.41;50.98;95876.84;10412988;28;20414;-21
2021/12/24 11:24:27;;;;;;;0.38;0.30;;;;;;;17.40;51.04;95862.53;10412832;28;20036;-21
2021/12/24 11:29:27;;;;;;;0.30;0.30;;;;;;;17.38;51.16;95852.41;10412157;28;20041;-28
2021/12/24 11:34:28;;;;;;;0.60;0.40;;;;;;;17.39;51.37;95854.09;10410737;28;20484;-21
2021/12/24 11:39:29;;;;;;;0.33;0.30;;;;;;;17.42;51.29;95855.75;10412428;28;20496;-21
2021/12/24 11:44:29;;;;;;;0.22;0.22;;;;;;;17.55;50.98;95847.16;10411552;28;20291;-21
2021/12/24 11:49:29;;;;;;;0.30;0.20;;;;;;;17.57;50.84;95842.94;10410620;28;20037;-21
2021/12/24 11:54:30;;;;;;;0.30;0.30;;;;;;;17.51;50.80;95835.41;10412092;28;20500;-21
2021/12/24 11:59:36;;;;;;;0.30;0.28;;;;;;;17.47;51.09;95831.22;10409088;28;20033;-22
2021/12/24 12:04:36;;;;;;;0.30;0.30;;;;;;;17.39;51.13;95830.47;10410194;28;20041;-21
2021/12/24 12:09:42;;;;;;;0.40;0.30;;;;;;;17.37;51.19;95837.22;10410602;28;20519;-21
2021/12/24 12:14:42;;;;;;;0.52;0.10;;;;;;;17.34;51.19;95830.47;10404581;28;21044;-21
2021/12/24 12:19:58;;;;;;;0.20;0.20;;;;;;;17.34;50.92;95834.72;10408757;28;20036;-21
2021/12/24 12:25:06;;;;;;;0.20;0.20;;;;;;;17.35;50.96;95827.13;10411515;28;20042;-21
2021/12/24 12:30:35;;;;;;;0.20;0.20;;;;;;;17.32;51.09;95823.78;10406636;28;20034;-21
2021/12/24 12:35:46;;;;;;;0.38;0.38;;;;;;;17.34;51.27;95814.47;10402723;28;20511;-22
2021/12/24 12:40:46;;;;;;;0.20;0.20;;;;;;;17.49;50.98;95806.75;10409678;28;20022;-21
2021/12/24 12:45:48;;;;;;;0.10;0.10;;;;;;;17.52;51.05;95783.94;10406553;28;20029;-21
2021/12/24 12:50:55;;;;;;;0.20;0.20;;;;;;;17.48;51.19;95788.19;10407352;28;20488;-21
2021/12/24 12:56:10;;;;;;;0.25;0.20;;;;;;;17.37;51.02;95782.44;10406938;28;20519;-21
2021/12/24 13:01:13;;;;;;;0.15;0.15;;;;;;;17.28;51.16;95769.00;10407671;28;20033;-21
2021/12/24 13:06:16;;;;;;;0.30;0.22;;;;;;;17.32;50.98;95763.06;10407102;28;20462;-21
2021/12/24 13:11:21;;;;;;;0.20;0.20;;;;;;;17.31;50.97;95757.16;10408179;28;20403;-21
2021/12/24 13:16:45;;;;;;;0.13;0.13;;;;;;;17.29;51.21;95751.28;10400768;28;20119;-21
2021/12/24 13:27:15;;;;;;;0.40;0.30;;;;;;;17.30;51.23;95731.88;10403002;28;20610;-21
2021/12/24 13:32:15;;;;;;;0.10;0.10;;;;;;;17.27;51.08;95731.91;10402174;28;20040;-21
2021/12/24 13:37:16;;;;;;;0.20;0.20;;;;;;;17.42;51.13;95726.72;10407761;28;20404;-21
2021/12/24 13:42:17;;;;;;;0.20;0.20;;;;;;;17.46;51.00;95715.69;10403301;28;20289;-21
2021/12/24 13:47:56;;;;;;;0.10;0.10;;;;;;;17.43;50.92;95709.00;10405737;28;20033;-21
2021/12/24 13:58:13;;;;;;;0.20;0.10;;;;;;;17.31;51.14;95713.34;10400023;28;20036;-21
2021/12/24 14:03:14;;;;;;;0.13;0.13;;;;;;;17.29;51.25;95715.88;10404725;28;20045;-21
2021/12/24 14:08:17;;;;;;;0.30;0.20;;;;;;;17.28;51.18;95728.53;10407413;28;20045;-22
2021/12/24 14:13:28;;;;;;;0.20;0.20;;;;;;;17.28;51.11;95723.47;10404087;28;20068;-21
2021/12/24 14:23:41;;;;;;;0.30;0.20;;;;;;;17.26;51.45;95715.06;10405492;28;20073;-21
2021/12/24 14:28:52;;;;;;;0.20;0.20;;;;;;;17.25;51.17;95703.28;10403314;28;20049;-21
2021/12/24 14:33:52;;;;;;;0.20;0.10;;;;;;;17.32;51.24;95704.88;10403870;28;20111;-21
2021/12/24 14:38:52;;;;;;;0.15;0.15;;;;;;;17.41;51.06;95703.09;10406871;28;20024;-21
2021/12/24 14:43:53;;;;;;;0.20;0.20;;;;;;;17.41;50.74;95700.56;10400589;28;20032;-21
2021/12/24 14:49:04;;;;;;;0.10;0.10;;;;;;;17.33;51.26;95696.44;10404026;28;20034;-21
2021/12/24 14:54:05;;;;;;;0.10;0.10;;;;;;;17.29;51.38;95684.66;10405423;28;20048;-21
2021/12/24 14:59:05;;;;;;;0.13;0.13;;;;;;;17.26;51.18;95679.66;10403433;28;20380;-21
2021/12/24 15:04:06;;;;;;;0.38;0.20;;;;;;;17.22;51.07;95670.41;10403596;28;20082;-21
2021/12/24 15:09:12;;;;;;;0.50;0.25;;;;;;;17.24;51.21;95677.13;10405640;28;20030;-21
2021/12/24 15:14:15;;;;;;;0.20;0.20;;;;;;;17.24;51.36;95671.25;10404278;28;20515;-21
2021/12/24 15:19:17;;;;;;;0.20;0.20;;;;;;;17.21;51.39;95671.25;10403507;28;20022;-22
2021/12/24 15:24:20;;;;;;;0.10;0.10;;;;;;;17.22;51.19;95672.94;10405091;28;20235;-22
2021/12/24 15:29:20;;;;;;;0.45;0.20;;;;;;;17.20;51.45;95667.91;10401651;28;20034;-21
2021/12/24 15:34:21;;;;;;;0.37;0.20;;;;;;;17.34;51.15;95665.22;10407986;28;20394;-21
2021/12/24 15:39:21;;;;;;;0.30;0.20;;;;;;;17.38;50.99;95675.31;10412428;28;20261;-21
2021/12/24 15:44:21;;;;;;;0.10;0.10;;;;;;;17.37;51.28;95682.91;10402777;28;20281;-21
2021/12/24 15:49:22;;;;;;;0.27;0.27;;;;;;;17.12;51.28;95646.09;10410093;28;20033;-21
2021/12/24 15:54:22;;;;;;;0.20;0.20;;;;;;;17.26;51.12;95684.72;10412071;28;20857;-21
2021/12/24 15:59:23;;;;;;;0.30;0.20;;;;;;;17.19;51.30;95680.56;10409570;28;20017;-21
2021/12/24 16:04:24;;;;;;;0.20;0.20;;;;;;;17.20;51.41;95685.63;10402196;28;20494;-22
2021/12/24 16:09:24;;;;;;;0.57;0.30;;;;;;;17.20;51.10;95680.56;10411429;28;20046;-21
2021/12/24 16:14:26;;;;;;;0.33;0.33;;;;;;;17.19;51.16;95683.94;10403456;28;20041;-21
2021/12/24 16:19:27;;;;;;;0.52;0.30;;;;;;;17.18;51.32;95691.53;10409892;28;20363;-21
2021/12/24 16:24:27;;;;;;;0.20;0.20;;;;;;;17.17;51.25;95687.34;10411059;28;20029;-21
2021/12/24 16:29:47;;;;;;;0.30;0.30;;;;;;;17.17;51.17;95685.63;10409476;28;20033;-21
2021/12/24 16:34:48;;;;;;;0.30;0.30;;;;;;;17.32;51.21;95682.94;10409153;28;20642;-22
2021/12/24 16:39:49;;;;;;;0.30;0.20;;;;;;;17.34;50.92;95677.88;10410086;28;20032;-21
2021/12/24 16:44:49;;;;;;;0.10;0.10;;;;;;;17.29;51.03;95659.38;10407870;28;20025;-21
2021/12/24 16:49:50;;;;;;;0.10;0.10;;;;;;;17.19;51.09;95665.41;10407754;28;20026;-21
2021/12/24 16:54:50;;;;;;;0.22;0.22;;;;;;;17.16;51.16;95657.84;10410318;28;20045;-21
2021/12/24 16:59:51;;;;;;;0.30;0.30;;;;;;;17.13;51.19;95650.28;10401607;28;20041;-21
2021/12/24 17:04:51;;;;;;;0.40;0.40;;;;;;;17.15;51.17;95651.13;10408173;28;20047;-21
2021/12/24 17:09:51;;;;;;;0.37;0.30;;;;;;;17.12;50.93;95638.50;10408622;28;20276;-21
2021/12/24 17:14:58;;;;;;;0.20;0.20;;;;;;;17.10;51.38;95643.59;10406315;28;20029;-21
2021/12/24 17:20:00;;;;;;;0.22;0.22;;;;;;;17.09;51.43;95649.47;10408112;28;20291;-20
2021/12/24 17:25:02;;;;;;;0.10;0.10;;;;;;;17.03;51.58;95646.19;10409359;28;20048;-21
2021/12/24 17:30:05;;;;;;;0.38;0.20;;;;;;;17.17;51.47;95654.47;10407629;28;20029;-21
2021/12/24 17:35:09;;;;;;;0.20;0.20;;;;;;;17.29;51.34;95646.72;10406365;28;20033;-21
2021/12/24 17:40:11;;;;;;;0.30;0.30;;;;;;;17.27;51.23;95640.84;10407551;28;20443;-21
2021/12/24 17:45:12;;;;;;;0.20;0.20;;;;;;;17.20;51.34;95639.25;10399839;28;20602;-22
2021/12/24 17:50:13;;;;;;;0.10;0.10;;;;;;;17.16;51.25;95640.97;10406238;28;20036;-21
2021/12/24 17:55:14;;;;;;;0.20;0.20;;;;;;;17.11;51.32;95650.31;10407002;28;20047;-21
2021/12/24 18:00:16;;;;;;;0.20;0.15;;;;;;;17.11;51.47;95634.31;10404800;28;20049;-21
2021/12/24 18:05:20;;;;;;;0.20;0.20;;;;;;;17.09;51.48;95636.84;10404367;28;20108;-21
2021/12/24 18:10:24;;;;;;;0.25;0.25;;;;;;;17.10;51.33;95635.16;10406825;28;20025;-21
2021/12/24 18:15:29;;;;;;;0.20;0.20;;;;;;;17.08;51.10;95629.28;10405585;28;20083;-21
2021/12/24 18:20:30;;;;;;;0.32;0.32;;;;;;;17.03;51.43;95631.03;10404145;28;20029;-21
2021/12/24 18:25:30;;;;;;;0.10;0.10;;;;;;;17.07;51.52;95630.16;10406818;28;20025;-22
2021/12/24 18:30:31;;;;;;;0.20;0.20;;;;;;;17.15;51.29;95635.97;10403628;28;20075;-21
2021/12/24 18:35:32;;;;;;;0.20;0.20;;;;;;;17.27;51.25;95625.66;10404493;28;20030;-21
2021/12/24 18:40:40;;;;;;;0.22;0.22;;;;;;;17.23;51.46;95622.34;10406823;28;20112;-22
2021/12/24 18:45:43;;;;;;;0.10;0.10;;;;;;;17.16;50.96;95609.81;10400662;28;20041;-21
2021/12/24 18:50:45;;;;;;;0.40;0.30;;;;;;;17.09;51.47;95603.97;10403587;28;20343;-21
2021/12/24 18:55:46;;;;;;;0.32;0.20;;;;;;;17.09;51.26;95603.16;10402303;28;20120;-22
2021/12/24 19:00:47;;;;;;;0.60;0.40;;;;;;;17.07;51.19;95612.44;10405679;28;20022;-21
2021/12/24 19:05:48;;;;;;;0.38;0.30;;;;;;;17.07;51.33;95620.03;10404517;28;20307;-21
2021/12/24 19:10:50;;;;;;;0.40;0.40;;;;;;;17.05;51.39;95622.56;10408309;28;20057;-21
2021/12/24 19:15:51;;;;;;;0.22;0.10;;;;;;;17.06;51.42;95621.72;10413904;28;20471;-21
2021/12/24 19:20:53;;;;;;;0.40;0.40;;;;;;;17.04;51.21;95612.47;10411553;28;20025;-22
2021/12/24 19:25:54;;;;;;;0.30;0.30;;;;;;;17.03;51.31;95606.59;10411066;28;20498;-21
2021/12/24 19:30:56;;;;;;;0.30;0.30;;;;;;;17.16;51.46;95617.41;10413588;28;20029;-21
2021/12/24 19:35:58;;;;;;;0.30;0.30;;;;;;;17.21;51.46;95613.94;10411845;28;20033;-21
2021/12/24 19:40:58;;;;;;;0.20;0.20;;;;;;;17.21;51.26;95610.56;10412432;28;20029;-21
2021/12/24 19:45:58;;;;;;;0.20;0.20;;;;;;;17.09;51.27;95605.69;10408836;28;20037;-21
2021/12/24 19:51:00;;;;;;;0.30;0.30;;;;;;;17.06;51.16;95618.38;10409261;28;20091;-21
2021/12/24 19:56:00;;;;;;;0.32;0.22;;;;;;;17.04;51.45;95612.47;10410382;28;20032;-20
2021/12/24 20:01:00;;;;;;;0.55;0.40;;;;;;;17.03;51.26;95616.69;10410692;28;20036;-21
2021/12/24 20:06:01;;;;;;;0.20;0.17;;;;;;;17.01;51.49;95608.31;10410198;28;20120;-21
2021/12/24 20:11:03;;;;;;;0.10;0.10;;;;;;;17.02;51.34;95599.00;10411315;28;20041;-21
2021/12/24 20:16:04;;;;;;;0.17;0.10;;;;;;;17.01;51.55;95602.41;10409524;28;20036;-22
2021/12/24 20:21:06;;;;;;;0.40;0.32;;;;;;;16.98;51.73;95587.28;10408179;28;20029;-21
2021/12/24 20:26:08;;;;;;;0.38;0.32;;;;;;;17.00;51.32;95590.63;10409569;28;20084;-21
2021/12/24 20:31:13;;;;;;;0.38;0.30;;;;;;;17.12;51.38;95606.47;10410412;28;20060;-21
2021/12/24 20:36:13;;;;;;;0.38;0.35;;;;;;;17.15;51.12;95601.38;10409215;28;20036;-21
2021/12/24 20:41:14;;;;;;;0.20;0.20;;;;;;;17.15;51.33;95605.59;10409946;28;20037;-21
2021/12/24 20:46:15;;;;;;;0.40;0.20;;;;;;;17.11;51.28;95596.38;10403893;28;20046;-21
2021/12/24 20:51:16;;;;;;;0.15;0.15;;;;;;;17.04;51.42;95592.25;10407017;28;20426;-21
2021/12/24 20:56:16;;;;;;;0.20;0.20;;;;;;;17.00;51.55;95595.69;10408439;28;20048;-21
2021/12/24 21:01:17;;;;;;;0.27;0.27;;;;;;;16.99;51.40;95592.28;10409205;28;20029;-21
2021/12/24 21:06:17;;;;;;;0.30;0.30;;;;;;;16.98;51.40;95592.34;10407930;28;20061;-21
2021/12/24 21:11:18;;;;;;;0.13;0.13;;;;;;;16.90;51.33;95582.28;10405938;28;20029;-21
2021/12/24 21:16:18;;;;;;;0.22;0.22;;;;;;;16.99;51.17;95594.00;10409324;28;20034;-21
2021/12/24 21:21:19;;;;;;;0.10;0.10;;;;;;;16.97;51.25;95580.53;10408099;28;20072;-21
2021/12/24 21:26:19;;;;;;;0.30;0.20;;;;;;;16.95;51.41;95564.53;10404996;28;20060;-21
2021/12/24 21:31:20;;;;;;;0.55;0.40;;;;;;;17.06;51.21;95567.78;10405384;28;20449;-21
2021/12/24 21:36:20;;;;;;;0.10;0.10;;;;;;;17.10;51.39;95556.78;10406636;28;20120;-21
2021/12/24 21:41:21;;;;;;;0.63;0.63;;;;;;;17.12;51.25;95552.53;10403997;28;20026;-22
2021/12/24 21:46:22;;;;;;;0.20;0.20;;;;;;;17.06;51.38;95550.09;10408115;28;20029;-22
2021/12/24 21:51:23;;;;;;;0.25;0.25;;;;;;;16.97;51.34;95545.13;10399532;28;20032;-21
2021/12/24 21:56:24;;;;;;;0.20;0.20;;;;;;;16.95;51.29;95557.81;10405975;28;20472;-21
2021/12/24 22:01:24;;;;;;;0.22;0.20;;;;;;;16.87;51.56;95548.63;10406811;28;20036;-21
2021/12/24 22:11:32;;;;;;;0.20;0.20;;;;;;;16.93;51.48;95546.91;10406851;28;20038;-21
2021/12/24 22:16:32;;;;;;;0.35;0.22;;;;;;;16.91;51.49;95550.28;10401671;28;20447;-21
2021/12/24 22:21:53;;;;;;;0.30;0.30;;;;;;;16.93;51.40;95553.63;10405419;28;20112;-21
2021/12/24 22:26:54;;;;;;;0.22;0.20;;;;;;;16.92;51.55;95552.78;10403354;28;20380;-21
2021/12/24 22:31:56;;;;;;;0.40;0.40;;;;;;;17.02;51.38;95549.31;10405655;28;20045;-21
2021/12/24 22:36:57;;;;;;;0.20;0.20;;;;;;;17.07;51.17;95545.00;10404960;28;20030;-21
2021/12/24 22:41:57;;;;;;;0.30;0.30;;;;;;;17.06;51.21;95537.44;10404633;28;20033;-21
2021/12/24 22:46:58;;;;;;;0.30;0.30;;;;;;;16.94;51.56;95540.13;10406719;28;20029;-21
2021/12/24 22:52:01;;;;;;;0.40;0.30;;;;;;;16.92;51.31;95549.44;10404012;28;20030;-21
2021/12/24 22:57:01;;;;;;;0.43;0.28;;;;;;;16.89;51.73;95535.13;10406168;28;20279;-21
2021/12/24 23:02:03;;;;;;;0.30;0.25;;;;;;;16.90;51.40;95539.31;10404040;28;20099;-21
2021/12/24 23:07:04;;;;;;;0.20;0.20;;;;;;;16.89;51.33;95536.84;10404351;28;20036;-21
2021/12/24 23:12:05;;;;;;;0.20;0.20;;;;;;;16.89;51.28;95536.84;10399803;28;20042;-21
2021/12/24 23:17:07;;;;;;;0.28;0.20;;;;;;;16.88;51.58;95525.03;10404057;28;20052;-21
2021/12/24 23:22:08;;;;;;;0.55;0.30;;;;;;;16.87;51.17;95524.22;10404454;28;20033;-22
2021/12/24 23:27:08;;;;;;;0.20;0.20;;;;;;;16.90;51.56;95520.81;10403778;28;20033;-21
2021/12/24 23:32:08;;;;;;;0.30;0.30;;;;;;;16.93;51.63;95515.72;10404571;28;20308;-21
2021/12/24 23:37:09;;;;;;;0.20;0.20;;;;;;;17.05;51.33;95520.59;10404802;28;20073;-22
2021/12/24 23:42:11;;;;;;;0.55;0.50;;;;;;;17.02;51.12;95515.59;10401576;28;20762;-21
2021/12/24 23:47:45;;;;;;;0.10;0.10;;;;;;;16.95;51.20;95516.50;10404500;28;20609;-21
2021/12/24 23:52:44;;;;;;;0.17;0.17;;;;;;;16.88;51.33;95515.78;10401279;28;20053;-21
2021/12/24 23:57:45;;;;;;;0.30;0.30;;;;;;;16.88;51.32;95499.75;10407880;28;20029;-21
